Stations météo

Publicité
Paris St-Maur, France (7154): Température de l'air & dewpoint: 17.06.2017 17:00:00 - 23.06.2017 17:00:00 (CEST)Paris St-Maur, France (7154): Vitesse du vent & gusts: 17.06.2017 17:00:00 - 23.06.2017 17:00:00 (CEST)Paris St-Maur, France (7154): Direction du vent: 17.06.2017 17:00:00 - 23.06.2017 17:00:00 (CEST)Paris St-Maur, France (7154): Quantités de précipitations: 17.06.2017 17:00:00 - 23.06.2017 17:00:00 (CEST)
Date & Time tt [°C] td [°C] ff [km/h] ff [knt] fx [km/h] fx [knt] dd rr [mm]
23.06.2017 17:00:00 26,5 9,8 11 6 29 16 WNW 0,0
23.06.2017 16:00:00 26,3 10,4 13 7 34 18 NW 0,0
23.06.2017 15:00:00 24,9 10,4 16 9 34 18 WNW 0,0
23.06.2017 14:00:00 24,4 10,7 13 7 29 16 WNW -
23.06.2017 13:00:00 23,7 11,1 18 10 34 18 WNW 0,0
23.06.2017 12:00:00 23,1 10,2 13 7 34 18 WSW 0,0
23.06.2017 11:00:00 21,5 10,9 13 7 31 17 WSW 0,0
23.06.2017 10:00:00 19,1 11,4 15 8 28 15 W 0,0
23.06.2017 09:00:00 18,4 11,7 13 7 26 14 W 0,0
23.06.2017 08:00:00 18,2 12,0 11 6 21 11 WNW -
23.06.2017 07:00:00 17,0 12,1 5 3 18 10 NW 0,0
23.06.2017 06:00:00 17,2 11,9 13 7 22 12 NW 0,0
23.06.2017 05:00:00 17,8 12,3 13 7 28 15 NW 0,0
23.06.2017 04:00:00 18,6 12,4 16 9 28 15 NW 0,0
23.06.2017 03:00:00 18,9 12,4 11 6 26 14 WNW 0,0
23.06.2017 02:00:00 19,6 12,6 11 6 34 18 NNW -
23.06.2017 01:00:00 21,0 13,4 13 7 24 13 NW 0,0
23.06.2017 00:00:00 22,3 14,2 15 8 34 18 NNW 0,0
22.06.2017 23:00:00 23,4 15,2 16 9 34 18 NNW 0,0
22.06.2017 22:00:00 24,8 16,0 15 8 37 20 NNW 0,0
22.06.2017 21:00:00 26,2 16,7 18 10 34 18 NW 0,0
22.06.2017 20:00:00 28,9 17,7 18 10 39 21 NNW -
22.06.2017 19:00:00 33,4 18,4 22 12 39 21 NW 0,0
22.06.2017 18:00:00 34,2 14,2 18 10 39 21 WSW 0,0
22.06.2017 17:00:00 36,3 13,1 18 10 35 19 SW 0,0
22.06.2017 16:00:00 35,8 13,9 16 9 35 19 WSW 0,0
22.06.2017 15:00:00 35,5 11,2 21 11 34 18 WSW 0,0
22.06.2017 14:00:00 34,7 14,6 15 8 28 15 SW -
22.06.2017 13:00:00 34,5 13,9 13 7 28 15 WSW 0,0
22.06.2017 12:00:00 33,5 14,5 15 8 26 14 WSW 0,0
22.06.2017 11:00:00 31,6 17,9 9 5 16 9 S 0,0
22.06.2017 10:00:00 29,1 17,9 5 3 16 9 SSE 0,0
22.06.2017 09:00:00 26,2 18,1 2 1 8 4 S 0,0
22.06.2017 08:00:00 24,4 17,6 4 2 15 8 SSE -
22.06.2017 07:00:00 22,9 17,6 4 2 13 7 E 0,0
22.06.2017 06:00:00 22,1 17,7 4 2 8 4 ESE 0,0
22.06.2017 05:00:00 22,6 17,9 8 4 9 5 SE 0,0
22.06.2017 04:00:00 23,4 17,8 8 4 13 7 SSE 0,0
22.06.2017 03:00:00 24,0 18,0 8 4 9 5 SE 0,0
22.06.2017 02:00:00 25,1 18,1 5 3 13 7 S -
22.06.2017 01:00:00 26,0 17,9 9 5 13 7 SSE 0,0
22.06.2017 00:00:00 26,9 17,4 8 4 11 6 SE 0,0
21.06.2017 23:00:00 28,6 14,8 9 5 15 8 ESE 0,0
21.06.2017 22:00:00 30,9 13,7 4 2 15 8 SW 0,0
21.06.2017 21:00:00 33,9 12,8 8 4 22 12 WSW 0,0
21.06.2017 20:00:00 35,5 13,6 9 5 24 13 WSW -
21.06.2017 19:00:00 37,0 13,7 11 6 24 13 SW 0,0
21.06.2017 18:00:00 36,9 13,6 8 4 22 12 SSE 0,0
21.06.2017 17:00:00 38,0 13,9 5 3 24 13 SW 0,0
21.06.2017 16:00:00 36,8 14,2 8 4 26 14 SW 0,0
21.06.2017 15:00:00 37,1 13,8 4 2 29 16 ESE 0,0
21.06.2017 14:00:00 36,3 13,1 9 5 26 14 SE -
21.06.2017 13:00:00 35,4 12,4 11 6 18 10 SSE 0,0
21.06.2017 12:00:00 33,9 13,9 4 2 16 9 E 0,0
21.06.2017 11:00:00 32,2 12,9 9 5 13 7 ESE 0,0
21.06.2017 10:00:00 28,7 13,8 5 3 11 6 SE 0,0
21.06.2017 09:00:00 24,5 16,2 4 2 11 6 ENE 0,0
21.06.2017 08:00:00 22,2 16,2 5 3 9 5 NE -
21.06.2017 07:00:00 21,1 16,1 0 0 8 4 N 0,0
21.06.2017 06:00:00 20,9 15,7 4 2 11 6 N 0,0
21.06.2017 05:00:00 21,2 15,5 4 2 8 4 ENE 0,0
21.06.2017 04:00:00 21,7 15,3 4 2 8 4 NE 0,0
21.06.2017 03:00:00 22,6 15,2 8 4 11 6 NNE 0,0
21.06.2017 02:00:00 23,1 14,9 5 3 8 4 NNE -
21.06.2017 01:00:00 23,9 14,6 4 2 13 7 NE 0,0
21.06.2017 00:00:00 24,8 14,3 8 4 15 8 NNE 0,0
20.06.2017 23:00:00 26,0 13,5 9 5 13 7 NE 0,0
20.06.2017 22:00:00 28,1 12,8 8 4 18 10 ENE 0,0
20.06.2017 21:00:00 30,2 12,1 11 6 34 18 NE 0,0
20.06.2017 20:00:00 31,7 12,0 18 10 31 17 NE -
20.06.2017 19:00:00 34,4 12,1 11 6 22 12 NE 0,0
20.06.2017 18:00:00 34,9 12,0 11 6 21 11 NNE 0,0
20.06.2017 17:00:00 35,2 12,2 9 5 22 12 NNE 0,0
20.06.2017 16:00:00 35,4 13,0 8 4 26 14 NNE 0,0
20.06.2017 15:00:00 35,1 12,1 4 2 21 11 WSW 0,0
20.06.2017 14:00:00 35,6 11,3 8 4 18 10 E -
20.06.2017 13:00:00 34,2 12,5 8 4 18 10 ENE 0,0
20.06.2017 12:00:00 33,3 13,9 5 3 13 7 N 0,0
20.06.2017 11:00:00 31,5 13,3 5 3 11 6 ENE 0,0
20.06.2017 10:00:00 28,1 13,6 2 1 8 4 S 0,0
20.06.2017 09:00:00 23,0 15,1 2 1 11 6 NE 0,0
20.06.2017 08:00:00 20,3 15,1 5 3 13 7 NNE -
20.06.2017 07:00:00 19,2 15,5 5 3 9 5 N 0,0
20.06.2017 06:00:00 18,9 15,2 8 4 9 5 N 0,0
20.06.2017 05:00:00 19,2 14,7 0 0 4 2 N 0,0
20.06.2017 04:00:00 19,9 15,1 0 0 8 4 N 0,0
20.06.2017 03:00:00 20,5 14,8 5 3 8 4 N 0,0
20.06.2017 02:00:00 21,2 14,8 4 2 4 2 NNE -
20.06.2017 01:00:00 22,1 14,2 2 1 8 4 NE 0,0
20.06.2017 00:00:00 23,3 13,2 4 2 8 4 ENE 0,0
19.06.2017 23:00:00 25,0 12,6 8 4 13 7 NE 0,0
19.06.2017 22:00:00 26,8 12,1 9 5 18 10 E 0,0
19.06.2017 21:00:00 29,5 11,1 11 6 18 10 ESE 0,0
19.06.2017 20:00:00 31,5 11,3 11 6 26 14 ESE -
19.06.2017 19:00:00 34,3 9,5 8 4 21 11 SE 0,0
19.06.2017 18:00:00 35,3 9,7 11 6 24 13 SSE 0,0
19.06.2017 17:00:00 34,8 9,3 8 4 18 10 E 0,0
19.06.2017 16:00:00 34,7 10,5 5 3 18 10 E 0,0
19.06.2017 15:00:00 34,0 9,9 9 5 24 13 E 0,0
19.06.2017 14:00:00 32,2 10,3 5 3 22 12 N -
19.06.2017 13:00:00 31,8 11,0 5 3 21 11 SSE 0,0
19.06.2017 12:00:00 30,4 10,9 8 4 21 11 NE 0,0
19.06.2017 11:00:00 27,9 11,0 5 3 16 9 ENE 0,0
19.06.2017 10:00:00 25,1 12,0 5 3 11 6 E 0,0
19.06.2017 09:00:00 20,8 13,0 4 2 13 7 ENE 0,0
19.06.2017 08:00:00 18,3 13,8 5 3 11 6 NE -
19.06.2017 07:00:00 17,3 14,0 4 2 11 6 N 0,0
19.06.2017 06:00:00 17,5 14,0 9 5 15 8 NE 0,0
19.06.2017 05:00:00 18,2 13,3 8 4 13 7 NE 0,0
19.06.2017 04:00:00 19,0 13,0 8 4 13 7 ENE 0,0
19.06.2017 03:00:00 19,7 13,9 8 4 13 7 NE 0,0
19.06.2017 02:00:00 20,3 14,6 8 4 16 9 NE -
19.06.2017 01:00:00 20,6 15,2 9 5 15 8 ENE 0,0
19.06.2017 00:00:00 21,7 15,1 8 4 13 7 NNE 0,0
18.06.2017 23:00:00 23,1 14,9 8 4 16 9 E 0,0
18.06.2017 22:00:00 24,8 14,6 9 5 22 12 E 0,0
18.06.2017 21:00:00 26,7 14,1 11 6 28 15 E 0,0
18.06.2017 20:00:00 28,2 13,7 13 7 28 15 E -
18.06.2017 19:00:00 30,7 12,6 15 8 31 17 E 0,0
18.06.2017 18:00:00 32,0 12,8 15 8 37 20 ENE 0,0
18.06.2017 17:00:00 31,8 13,1 21 11 37 20 E 0,0
18.06.2017 16:00:00 31,7 12,5 16 9 37 20 ENE 0,0
18.06.2017 15:00:00 30,9 12,3 11 6 34 18 NE 0,0
18.06.2017 14:00:00 30,2 12,1 13 7 39 21 NE -
18.06.2017 13:00:00 29,3 13,1 16 9 31 17 ENE 0,0
18.06.2017 12:00:00 28,0 13,9 15 8 26 14 ENE 0,0
18.06.2017 11:00:00 26,6 13,7 13 7 24 13 E 0,0
18.06.2017 10:00:00 23,9 14,6 8 4 18 10 ENE 0,0
18.06.2017 09:00:00 20,0 14,4 9 5 16 9 ENE 0,0
18.06.2017 08:00:00 17,9 13,8 9 5 18 10 NE -
18.06.2017 07:00:00 16,7 13,8 5 3 15 8 N 0,0
18.06.2017 06:00:00 16,3 13,8 4 2 13 7 NNE 0,0
18.06.2017 05:00:00 17,0 14,3 8 4 11 6 N 0,0
18.06.2017 04:00:00 17,8 14,3 5 3 16 9 NE 0,0
18.06.2017 03:00:00 18,6 14,9 8 4 16 9 NE 0,0
18.06.2017 02:00:00 19,2 15,1 8 4 18 10 NE -
18.06.2017 01:00:00 19,9 15,1 9 5 18 10 NE 0,0
18.06.2017 00:00:00 20,2 14,8 9 5 15 8 NNE 0,0
17.06.2017 23:00:00 21,0 14,4 8 4 9 5 NNE 0,0
17.06.2017 22:00:00 22,7 14,0 5 3 11 6 NE 0,0
17.06.2017 21:00:00 24,5 13,7 4 2 22 12 NE 0,0
17.06.2017 20:00:00 26,0 13,8 9 5 28 15 ENE -
17.06.2017 19:00:00 28,0 13,1 9 5 29 16 NNE 0,0
17.06.2017 18:00:00 28,9 12,7 11 6 34 18 NE 0,0
17.06.2017 17:00:00 29,8 13,1 11 6 42 23 NE 0,0

tt = Température de l'air
td = dewpoint
ff = Vitesse du vent
fx = gusts
dd = Direction du vent
rr = Quantités de précipitations

stations d'obs. à proximité